Americana — A8UZ5 — position and weather

sailwx.info

Track history (hours):
 
Tides and Currents Weather Stations Pressure Air Temp Water Temp Dewpoint Dewpoint Depression Visibility Wind Speed Wind Dir Waves Ship Positions

Americana

Last reported at 2015-May-29 11:29 UTC. Time now 2015-Jul-28 15:21 UTC.
Position N 01°57' E 102°17'.
Warning: this ship's position is months out of date.

Length 229 m; draft 13.8 m.

Type: Ship. MMSI: 636014578.

Date/timePositionNaut miles runAvg speedWind from/ knotsBaromVisibWave heightAir tempDewpointWater temp
2015-May-29 11:29N 01°57' E 102°17'1011.1
2015-May-29 10:33N 01°52' E 102°26'1111.0
2015-May-29 09:33N 01°48' E 102°36'1211.2
2015-May-29 08:31N 01°43' E 102°47'6911.4
2015-May-29 02:25N 01°11' E 103°48'910.9
2015-May-29 01:33N 01°14' E 103°57'1111.4
2015-May-29 00:33N 01°17' E 104°08'9 8.9
2015-May-28 23:30N 01°20' E 104°17'0 0.0
2015-May-28 16:20N 01°20' E 104°17'0 0.0
2015-May-28 13:32N 01°20' E 104°17'  
2015-May-25 15:10S 04°23' E 115°15'2011.8
2015-May-25 13:26S 04°14' E 115°33'  
Track history (hours):
 
Tides and Currents Weather Stations Pressure Air Temp Water Temp Dewpoint Dewpoint Depression Visibility Wind Speed Wind Dir Waves Ship Positions

Americana

Last reported at 2015-May-29 11:29 UTC. Time now 2015-Jul-28 15:21 UTC.
Position N 01°57' E 102°17'.
Warning: this ship's position is months out of date.

Length 229 m; draft 13.8 m.

Type: Ship. MMSI: 636014578.

Date/timePositionNaut miles runAvg speedWind from/ knotsBaromVisibWave heightAir tempDewpointWater temp
2015-May-29 11:29N 01°57' E 102°17'1011.1
2015-May-29 10:33N 01°52' E 102°26'1111.0
2015-May-29 09:33N 01°48' E 102°36'1211.2
2015-May-29 08:31N 01°43' E 102°47'6911.4
2015-May-29 02:25N 01°11' E 103°48'910.9
2015-May-29 01:33N 01°14' E 103°57'1111.4
2015-May-29 00:33N 01°17' E 104°08'9 8.9
2015-May-28 23:30N 01°20' E 104°17'0 0.0
2015-May-28 16:20N 01°20' E 104°17'0 0.0
2015-May-28 13:32N 01°20' E 104°17'  
2015-May-25 15:10S 04°23' E 115°15'2011.8
2015-May-25 13:26S 04°14' E 115°33'  

Dump ship's entire track history